Time;durP1;ratioP1;P1;durP2;ratioP2;P2;SDS_P1;SDS_P2;PMS_P1;PMS_P2;Temp;Humidity;BMP_temperature;BMP_pressure;BME280_temperature;BME280_humidity;BME280_pressure;Samples;Min_cycle;Max_cycle;Signal;HPM_P1;HPM_P2
2023/12/21 00:02:41;;;;;;;4.63;4.53;;;;;;;;;;6045573;29;20045;-91
2023/12/21 00:05:44;;;;;;;4.82;4.72;;;;;;;;;;6043382;29;20139;-91
2023/12/21 00:08:46;;;;;;;4.90;4.80;;;;;;;;;;6043567;29;20041;-92
2023/12/21 00:11:48;;;;;;;4.60;4.50;;;;;;;;;;6046121;29;20690;-91
2023/12/21 00:14:50;;;;;;;5.35;5.15;;;;;;;;;;6040209;29;20122;-91
2023/12/21 00:17:55;;;;;;;5.47;5.28;;;;;;;;;;6033241;29;20558;-92
2023/12/21 00:20:57;;;;;;;4.80;4.70;;;;;;;;;;6030719;29;20538;-91
2023/12/21 00:23:59;;;;;;;4.78;4.68;;;;;;;;;;6061617;29;20162;-90
2023/12/21 00:27:01;;;;;;;4.60;4.50;;;;;;;;;;6034769;29;20064;-91
2023/12/21 00:30:05;;;;;;;5.00;4.90;;;;;;;;;;6044087;29;20084;-92
2023/12/21 00:33:07;;;;;;;4.95;4.85;;;;;;;;;;6035103;29;20064;-91
2023/12/21 00:36:15;;;;;;;4.35;4.25;;;;;;;;;;6042747;29;20051;-90
2023/12/21 00:39:16;;;;;;;5.50;5.30;;;;;;;;;;6045909;29;20128;-90
2023/12/21 00:42:18;;;;;;;4.97;4.88;;;;;;;;;;6039399;29;20420;-90
2023/12/21 00:45:19;;;;;;;4.32;4.20;;;;;;;;;;6041613;29;20069;-91
2023/12/21 00:48:21;;;;;;;4.63;4.53;;;;;;;;;;6038229;29;20049;-91
2023/12/21 00:51:23;;;;;;;4.75;4.65;;;;;;;;;;6036905;29;20057;-91
2023/12/21 00:54:25;;;;;;;4.70;4.60;;;;;;;;;;6025773;29;20575;-92
2023/12/21 00:57:27;;;;;;;5.28;5.18;;;;;;;;;;6044603;29;20492;-91
2023/12/21 01:00:29;;;;;;;5.22;5.03;;;;;;;;;;6036273;29;20045;-91
2023/12/21 01:03:31;;;;;;;6.35;6.15;;;;;;;;;;6040425;29;20041;-91
2023/12/21 01:06:36;;;;;;;5.18;5.07;;;;;;;;;;6037002;29;20038;-91
2023/12/21 01:09:38;;;;;;;4.30;4.20;;;;;;;;;;6043865;29;20487;-91
2023/12/21 01:12:41;;;;;;;4.60;4.50;;;;;;;;;;6046357;29;20044;-92
2023/12/21 01:15:43;;;;;;;4.60;4.50;;;;;;;;;;6044180;29;20251;-91
2023/12/21 01:18:45;;;;;;;5.22;5.13;;;;;;;;;;6045516;29;20120;-95
2023/12/21 01:21:47;;;;;;;5.22;5.03;;;;;;;;;;6038079;29;20046;-93
2023/12/21 01:24:49;;;;;;;5.50;5.35;;;;;;;;;;6050930;29;20041;-93
2023/12/21 01:27:51;;;;;;;5.28;5.18;;;;;;;;;;6031416;29;20561;-92
2023/12/21 01:30:53;;;;;;;5.43;5.22;;;;;;;;;;6034979;29;20049;-93
2023/12/21 01:33:56;;;;;;;5.75;5.55;;;;;;;;;;6041192;29;20060;-92
2023/12/21 01:36:58;;;;;;;4.95;4.85;;;;;;;;;;6040303;29;20061;-93
2023/12/21 01:40:00;;;;;;;4.90;4.80;;;;;;;;;;6044800;29;20057;-93
2023/12/21 01:43:03;;;;;;;5.25;5.15;;;;;;;;;;6044791;29;20049;-95
2023/12/21 01:46:05;;;;;;;5.22;5.10;;;;;;;;;;6037489;29;20500;-93
2023/12/21 01:49:07;;;;;;;5.05;4.95;;;;;;;;;;6028977;29;20041;-95
2023/12/21 01:52:09;;;;;;;5.40;5.20;;;;;;;;;;6042410;29;20041;-94
2023/12/21 01:55:12;;;;;;;5.60;5.40;;;;;;;;;;6051409;29;20239;-93
2023/12/21 01:58:14;;;;;;;5.93;5.70;;;;;;;;;;6045793;29;20449;-92
2023/12/21 02:01:17;;;;;;;6.22;6.03;;;;;;;;;;6027599;29;20394;-95
2023/12/21 02:04:19;;;;;;;4.80;4.70;;;;;;;;;;6044234;29;20172;-95
2023/12/21 02:07:22;;;;;;;6.80;6.60;;;;;;;;;;6029912;29;20056;-94
2023/12/21 02:10:24;;;;;;;5.05;4.95;;;;;;;;;;6044549;29;20159;-95
2023/12/21 02:13:26;;;;;;;5.43;5.30;;;;;;;;;;6040025;29;20041;-94
2023/12/21 02:16:35;;;;;;;5.78;5.57;;;;;;;;;;6040514;29;20045;-92
2023/12/21 02:19:37;;;;;;;6.15;5.95;;;;;;;;;;6048761;29;20496;-94
2023/12/21 02:22:41;;;;;;;5.90;5.70;;;;;;;;;;6048952;29;20044;-95
2023/12/21 02:25:43;;;;;;;5.43;5.30;;;;;;;;;;6045936;29;20408;-93
2023/12/21 02:28:45;;;;;;;5.20;5.10;;;;;;;;;;6046101;29;20056;-93
2023/12/21 02:31:47;;;;;;;4.82;4.72;;;;;;;;;;6047634;29;20045;-93
2023/12/21 02:34:49;;;;;;;5.32;5.13;;;;;;;;;;6045065;29;20056;-94
2023/12/21 02:37:52;;;;;;;5.40;5.20;;;;;;;;;;6042090;29;20048;-94
2023/12/21 02:40:59;;;;;;;15.50;5.25;;;;;;;;;;6037089;29;20064;-94
2023/12/21 02:44:02;;;;;;;8.35;5.78;;;;;;;;;;6036259;29;20049;-93
2023/12/21 02:47:03;;;;;;;5.72;5.53;;;;;;;;;;6047561;29;20128;-95
2023/12/21 02:50:06;;;;;;;4.95;4.85;;;;;;;;;;6041759;29;20052;-94
2023/12/21 02:53:08;;;;;;;5.00;4.90;;;;;;;;;;6044655;29;20481;-93
2023/12/21 02:56:10;;;;;;;4.78;4.68;;;;;;;;;;6045494;29;20177;-93
2023/12/21 02:59:12;;;;;;;6.03;5.82;;;;;;;;;;6044981;29;20408;-93
2023/12/21 03:02:14;;;;;;;5.03;4.93;;;;;;;;;;6048170;29;20048;-92
2023/12/21 03:05:16;;;;;;;4.97;4.88;;;;;;;;;;6052508;29;20547;-92
2023/12/21 03:08:18;;;;;;;5.78;5.60;;;;;;;;;;6049246;29;20388;-92
2023/12/21 03:11:20;;;;;;;6.20;6.00;;;;;;;;;;6044663;29;20089;-93
2023/12/21 03:14:22;;;;;;;4.53;4.43;;;;;;;;;;6042434;29;20057;-91
2023/12/21 03:17:24;;;;;;;5.20;5.10;;;;;;;;;;6045404;29;20141;-91
2023/12/21 03:20:26;;;;;;;5.05;4.95;;;;;;;;;;6035462;29;20048;-91
2023/12/21 03:23:28;;;;;;;5.57;5.38;;;;;;;;;;6047039;29;20124;-91
2023/12/21 03:26:31;;;;;;;5.65;5.45;;;;;;;;;;6048987;29;20738;-90
2023/12/21 03:29:33;;;;;;;4.68;4.57;;;;;;;;;;6043933;29;20045;-91
2023/12/21 03:32:36;;;;;;;5.03;4.93;;;;;;;;;;6048777;29;20075;-91
2023/12/21 03:35:38;;;;;;;6.13;5.93;;;;;;;;;;6042997;29;20034;-92
2023/12/21 03:38:40;;;;;;;5.55;5.35;;;;;;;;;;6042315;29;20047;-92
2023/12/21 03:41:42;;;;;;;5.05;4.95;;;;;;;;;;6046446;29;20122;-92
2023/12/21 03:44:44;;;;;;;4.80;4.70;;;;;;;;;;6048338;29;20049;-91
2023/12/21 03:47:46;;;;;;;4.82;4.72;;;;;;;;;;6050441;29;20072;-91
2023/12/21 03:50:48;;;;;;;5.60;5.40;;;;;;;;;;6058194;29;20053;-91
2023/12/21 03:53:50;;;;;;;5.43;5.22;;;;;;;;;;6047784;29;20264;-92
2023/12/21 03:56:52;;;;;;;4.68;4.57;;;;;;;;;;6050667;29;20052;-90
2023/12/21 03:59:53;;;;;;;5.18;5.07;;;;;;;;;;6047446;29;20085;-90
2023/12/21 04:02:58;;;;;;;4.90;4.80;;;;;;;;;;6031668;29;20601;-89
2023/12/21 04:06:00;;;;;;;5.32;5.20;;;;;;;;;;6053809;29;20053;-90
2023/12/21 04:09:02;;;;;;;5.05;4.95;;;;;;;;;;6047417;29;20068;-90
2023/12/21 04:12:04;;;;;;;5.13;5.03;;;;;;;;;;6049078;29;20049;-90
2023/12/21 04:15:06;;;;;;;4.85;4.75;;;;;;;;;;6047247;29;20073;-90
2023/12/21 04:18:07;;;;;;;5.07;4.97;;;;;;;;;;6037527;29;20048;-90
2023/12/21 04:21:09;;;;;;;5.50;5.32;;;;;;;;;;6047465;29;20499;-90
2023/12/21 04:24:12;;;;;;;4.80;4.70;;;;;;;;;;6049458;29;20108;-90
2023/12/21 04:27:14;;;;;;;4.60;4.50;;;;;;;;;;6043477;29;20045;-90
2023/12/21 04:30:16;;;;;;;5.28;5.18;;;;;;;;;;6044624;29;20048;-89
2023/12/21 04:33:17;;;;;;;5.15;5.05;;;;;;;;;;6041127;29;20116;-89
2023/12/21 04:36:20;;;;;;;5.13;5.03;;;;;;;;;;6052008;29;20048;-89
2023/12/21 04:39:26;;;;;;;5.38;5.20;;;;;;;;;;6042139;29;20045;-89
2023/12/21 04:42:28;;;;;;;5.05;4.95;;;;;;;;;;6037643;29;20040;-89
2023/12/21 04:45:29;;;;;;;5.10;5.00;;;;;;;;;;6039786;29;20041;-89
2023/12/21 04:48:34;;;;;;;4.90;4.80;;;;;;;;;;6035661;29;20052;-89
2023/12/21 04:51:36;;;;;;;5.30;5.20;;;;;;;;;;6045487;29;20053;-90
2023/12/21 04:54:39;;;;;;;4.75;4.65;;;;;;;;;;6041218;29;20045;-91
2023/12/21 04:57:41;;;;;;;4.80;4.70;;;;;;;;;;6049969;29;20283;-90
2023/12/21 05:00:47;;;;;;;5.25;5.15;;;;;;;;;;6044130;29;20057;-90
2023/12/21 05:03:50;;;;;;;5.05;4.95;;;;;;;;;;6043769;29;20416;-91
2023/12/21 05:06:52;;;;;;;5.38;5.18;;;;;;;;;;6047650;29;20053;-91
2023/12/21 05:09:59;;;;;;;5.05;4.95;;;;;;;;;;6048103;29;20484;-91
2023/12/21 05:13:01;;;;;;;5.43;5.25;;;;;;;;;;6051370;29;20053;-92
2023/12/21 05:16:03;;;;;;;4.80;4.70;;;;;;;;;;6036969;29;20089;-92
2023/12/21 05:19:05;;;;;;;5.78;5.57;;;;;;;;;;6034449;29;20053;-90
2023/12/21 05:22:07;;;;;;;5.25;5.05;;;;;;;;;;6047601;29;20045;-92
2023/12/21 05:25:09;;;;;;;5.63;5.43;;;;;;;;;;6041077;29;20045;-93
2023/12/21 05:28:14;;;;;;;5.15;5.05;;;;;;;;;;6038155;29;20171;-92
2023/12/21 05:31:25;;;;;;;6.55;6.35;;;;;;;;;;6034979;29;20053;-92
2023/12/21 05:34:27;;;;;;;5.30;5.18;;;;;;;;;;6042965;29;20151;-92
2023/12/21 05:37:29;;;;;;;5.53;5.32;;;;;;;;;;6044906;29;20501;-92
2023/12/21 05:40:30;;;;;;;4.78;4.68;;;;;;;;;;6050009;29;20503;-93
2023/12/21 05:43:32;;;;;;;4.97;4.88;;;;;;;;;;6055259;29;20766;-93
2023/12/21 05:46:34;;;;;;;4.93;4.82;;;;;;;;;;6036578;29;20060;-92
2023/12/21 05:49:36;;;;;;;4.97;4.88;;;;;;;;;;6043468;29;20185;-92
2023/12/21 05:52:38;;;;;;;5.07;4.97;;;;;;;;;;6048101;29;20052;-92
2023/12/21 05:55:39;;;;;;;4.95;4.85;;;;;;;;;;6055904;29;20052;-93
2023/12/21 05:58:41;;;;;;;5.55;5.35;;;;;;;;;;6047306;29;20261;-92
2023/12/21 06:01:45;;;;;;;5.57;5.43;;;;;;;;;;6036224;29;20057;-93
2023/12/21 06:04:48;;;;;;;5.20;5.10;;;;;;;;;;6053644;29;20051;-91
2023/12/21 06:07:50;;;;;;;4.55;4.45;;;;;;;;;;6043683;29;20055;-92
2023/12/21 06:10:52;;;;;;;5.50;5.30;;;;;;;;;;6053301;29;20109;-91
2023/12/21 06:13:53;;;;;;;4.95;4.85;;;;;;;;;;6052291;29;20064;-91
2023/12/21 06:16:55;;;;;;;5.93;5.72;;;;;;;;;;6046950;29;20128;-91
2023/12/21 06:19:57;;;;;;;5.15;5.05;;;;;;;;;;6063072;29;20165;-91
2023/12/21 06:22:59;;;;;;;6.22;6.03;;;;;;;;;;6050939;29;20037;-91
2023/12/21 06:26:00;;;;;;;5.45;5.28;;;;;;;;;;6047136;29;20515;-91
2023/12/21 06:29:02;;;;;;;5.80;5.60;;;;;;;;;;6049403;29;20049;-90
2023/12/21 06:32:04;;;;;;;5.32;5.20;;;;;;;;;;6049792;29;20144;-90
2023/12/21 06:35:06;;;;;;;5.68;5.50;;;;;;;;;;6072373;29;20059;-89
2023/12/21 06:38:08;;;;;;;5.70;5.50;;;;;;;;;;6054214;29;20144;-88
2023/12/21 06:41:12;;;;;;;5.28;5.18;;;;;;;;;;6046031;29;20503;-89
2023/12/21 06:44:14;;;;;;;5.80;5.60;;;;;;;;;;6042071;29;20052;-88
2023/12/21 06:47:15;;;;;;;5.25;5.13;;;;;;;;;;6050107;29;20041;-88
2023/12/21 06:50:19;;;;;;;5.18;5.07;;;;;;;;;;6044493;29;20060;-88
2023/12/21 06:53:20;;;;;;;5.82;5.63;;;;;;;;;;6048393;29;20610;-89
2023/12/21 06:56:22;;;;;;;5.25;5.15;;;;;;;;;;6045680;29;20709;-88
2023/12/21 06:59:35;;;;;;;4.85;4.75;;;;;;;;;;6049172;29;20060;-89
2023/12/21 07:02:37;;;;;;;4.97;4.88;;;;;;;;;;6044856;29;20431;-89
2023/12/21 07:05:38;;;;;;;4.65;4.55;;;;;;;;;;6054944;29;20053;-89
2023/12/21 07:08:40;;;;;;;5.60;5.40;;;;;;;;;;6049717;29;20128;-89
2023/12/21 07:11:42;;;;;;;5.40;5.30;;;;;;;;;;6045985;29;20052;-89
2023/12/21 07:14:44;;;;;;;5.60;5.40;;;;;;;;;;6045446;29;20053;-90
2023/12/21 07:17:46;;;;;;;5.30;5.20;;;;;;;;;;6049135;29;20061;-90
2023/12/21 07:20:48;;;;;;;4.95;4.85;;;;;;;;;;6049851;29;20044;-90
2023/12/21 07:23:49;;;;;;;5.10;5.00;;;;;;;;;;6039178;29;20520;-90
2023/12/21 07:26:51;;;;;;;5.38;5.28;;;;;;;;;;6045707;29;20109;-90
2023/12/21 07:29:53;;;;;;;4.95;4.85;;;;;;;;;;6042890;29;20552;-91
2023/12/21 07:32:55;;;;;;;4.75;4.65;;;;;;;;;;6047274;29;20056;-89
2023/12/21 07:36:01;;;;;;;5.53;5.32;;;;;;;;;;6053453;29;20525;-90
2023/12/21 07:39:04;;;;;;;4.55;4.45;;;;;;;;;;6050923;29;20053;-90
2023/12/21 07:42:06;;;;;;;5.55;5.38;;;;;;;;;;6045671;29;20037;-90
2023/12/21 07:45:08;;;;;;;4.97;4.88;;;;;;;;;;6042616;29;20049;-91
2023/12/21 07:48:09;;;;;;;5.72;5.53;;;;;;;;;;6041881;29;20519;-89
2023/12/21 07:51:11;;;;;;;5.70;5.50;;;;;;;;;;6049863;29;20053;-89
2023/12/21 07:54:13;;;;;;;5.13;5.03;;;;;;;;;;6045698;29;20163;-88
2023/12/21 07:57:14;;;;;;;4.78;4.68;;;;;;;;;;6045639;29;20064;-89
2023/12/21 08:00:16;;;;;;;6.05;5.85;;;;;;;;;;6044179;29;20078;-88
2023/12/21 08:03:19;;;;;;;4.90;4.80;;;;;;;;;;6044497;29;20049;-89
2023/12/21 08:06:21;;;;;;;5.80;5.60;;;;;;;;;;6048768;29;20041;-90
2023/12/21 08:09:23;;;;;;;5.30;5.18;;;;;;;;;;6050694;29;20156;-90
2023/12/21 08:12:25;;;;;;;4.80;4.70;;;;;;;;;;6049155;29;20061;-90
2023/12/21 08:15:27;;;;;;;5.47;5.32;;;;;;;;;;6037485;29;20041;-90
2023/12/21 08:18:28;;;;;;;5.32;5.22;;;;;;;;;;6043618;29;20159;-90
2023/12/21 08:21:30;;;;;;;5.70;5.50;;;;;;;;;;6063479;29;20049;-91
2023/12/21 08:24:33;;;;;;;6.18;5.97;;;;;;;;;;6036601;29;20454;-90
2023/12/21 08:27:35;;;;;;;6.78;6.57;;;;;;;;;;6043061;29;20517;-89
2023/12/21 08:30:39;;;;;;;6.22;6.03;;;;;;;;;;6046448;29;20041;-89
2023/12/21 08:33:40;;;;;;;5.43;5.20;;;;;;;;;;6048843;29;20169;-89
2023/12/21 08:36:42;;;;;;;5.10;5.00;;;;;;;;;;6054684;29;20078;-89
2023/12/21 08:39:44;;;;;;;5.78;5.57;;;;;;;;;;6049634;29;20393;-93
2023/12/21 08:42:46;;;;;;;5.50;5.30;;;;;;;;;;6042076;29;20037;-92
2023/12/21 08:45:47;;;;;;;5.85;5.65;;;;;;;;;;6036434;29;20048;-90
2023/12/21 08:48:49;;;;;;;5.82;5.63;;;;;;;;;;6039366;29;20182;-94
2023/12/21 08:51:53;;;;;;;6.15;5.95;;;;;;;;;;6047043;29;20128;-92
2023/12/21 08:54:56;;;;;;;6.43;6.22;;;;;;;;;;6036480;29;20518;-92
2023/12/21 08:57:58;;;;;;;5.70;5.50;;;;;;;;;;6036761;29;20120;-94
2023/12/21 09:01:02;;;;;;;5.97;5.78;;;;;;;;;;6037455;29;20056;-93
2023/12/21 09:04:06;;;;;;;6.63;6.43;;;;;;;;;;6048483;29;20202;-95
2023/12/21 09:07:08;;;;;;;5.32;5.18;;;;;;;;;;6040826;29;20037;-94
2023/12/21 09:10:10;;;;;;;7.47;7.28;;;;;;;;;;6046998;29;20049;-93
2023/12/21 09:13:13;;;;;;;6.50;6.30;;;;;;;;;;6042819;29;20303;-93
2023/12/21 09:16:17;;;;;;;6.57;6.38;;;;;;;;;;6056599;29;20538;-90
2023/12/21 09:19:18;;;;;;;5.35;5.22;;;;;;;;;;6060593;29;20049;-90
2023/12/21 09:22:23;;;;;;;12.13;11.73;;;;;;;;;;6043718;29;20101;-95
2023/12/21 09:25:25;;;;;;;6.80;6.60;;;;;;;;;;6052649;29;20076;-92
2023/12/21 09:28:29;;;;;;;5.85;5.65;;;;;;;;;;6041458;29;20026;-96
2023/12/21 09:31:32;;;;;;;6.47;6.28;;;;;;;;;;6057699;29;20099;-93
2023/12/21 09:34:33;;;;;;;7.57;7.38;;;;;;;;;;6046730;29;20052;-89
2023/12/21 09:37:35;;;;;;;7.00;6.80;;;;;;;;;;6047589;29;20037;-89
2023/12/21 09:40:37;;;;;;;5.05;4.95;;;;;;;;;;6042263;29;20079;-91
2023/12/21 09:43:41;;;;;;;5.78;5.57;;;;;;;;;;6044184;29;20045;-96
2023/12/21 09:46:44;;;;;;;6.35;6.15;;;;;;;;;;6051145;29;20053;-96
2023/12/21 09:50:04;;;;;;;7.65;7.35;;;;;;;;;;6048516;29;20132;-90
2023/12/21 09:53:06;;;;;;;7.28;7.05;;;;;;;;;;6049932;29;20527;-90
2023/12/21 09:56:08;;;;;;;6.63;6.28;;;;;;;;;;6039509;29;20052;-90
2023/12/21 09:59:10;;;;;;;6.55;6.35;;;;;;;;;;6051595;29;20056;-91
2023/12/21 10:02:12;;;;;;;5.97;5.78;;;;;;;;;;6040282;29;20045;-91
2023/12/21 10:05:14;;;;;;;5.13;5.03;;;;;;;;;;6039893;29;20495;-93
2023/12/21 10:08:18;;;;;;;5.40;5.22;;;;;;;;;;6043590;29;20596;-91
2023/12/21 10:11:20;;;;;;;5.65;5.45;;;;;;;;;;6047552;29;20090;-92
2023/12/21 10:14:22;;;;;;;4.95;4.85;;;;;;;;;;6045938;29;20041;-93
2023/12/21 10:17:24;;;;;;;6.47;6.28;;;;;;;;;;6052675;29;20045;-91
2023/12/21 10:20:26;;;;;;;5.90;5.70;;;;;;;;;;6040397;29;20045;-92
2023/12/21 10:23:33;;;;;;;5.80;5.60;;;;;;;;;;6063363;29;20054;-92
2023/12/21 10:26:43;;;;;;;7.68;7.47;;;;;;;;;;6057992;29;20057;-90
2023/12/21 10:29:55;;;;;;;6.40;6.20;;;;;;;;;;6029635;29;20084;-90
2023/12/21 10:32:58;;;;;;;6.43;6.22;;;;;;;;;;6042754;29;20052;-90
2023/12/21 10:36:00;;;;;;;6.32;6.13;;;;;;;;;;6055146;29;20422;-89
2023/12/21 10:39:04;;;;;;;6.20;6.00;;;;;;;;;;6050596;29;20048;-90
2023/12/21 10:42:06;;;;;;;5.35;5.25;;;;;;;;;;6037001;29;20049;-91
2023/12/21 10:45:09;;;;;;;7.18;6.97;;;;;;;;;;6058051;29;20049;-91
2023/12/21 10:48:28;;;;;;;6.88;6.68;;;;;;;;;;6049015;29;20037;-90
2023/12/21 10:51:36;;;;;;;6.30;6.10;;;;;;;;;;6043037;29;20144;-91
2023/12/21 10:54:41;;;;;;;7.07;6.88;;;;;;;;;;6044878;29;20045;-90
2023/12/21 10:57:44;;;;;;;6.22;6.03;;;;;;;;;;6068722;29;20045;-91
2023/12/21 11:00:46;;;;;;;6.68;6.47;;;;;;;;;;6046009;29;20627;-90
2023/12/21 11:03:49;;;;;;;5.53;5.38;;;;;;;;;;6044984;29;20117;-91
2023/12/21 11:06:52;;;;;;;10.35;10.05;;;;;;;;;;6056672;29;20104;-94
2023/12/21 11:09:54;;;;;;;8.02;7.72;;;;;;;;;;6044627;29;20117;-94
2023/12/21 11:12:55;;;;;;;6.10;5.90;;;;;;;;;;6045968;29;20140;-93
2023/12/21 11:15:57;;;;;;;6.28;6.07;;;;;;;;;;6050540;29;20540;-89
2023/12/21 11:19:02;;;;;;;10.73;7.10;;;;;;;;;;6049962;29;20052;-91
2023/12/21 11:22:04;;;;;;;6.90;6.70;;;;;;;;;;6056021;29;20149;-93
2023/12/21 11:25:11;;;;;;;6.20;6.00;;;;;;;;;;6040791;29;20496;-90
2023/12/21 11:28:13;;;;;;;5.70;5.50;;;;;;;;;;6042072;29;20067;-90
2023/12/21 11:31:15;;;;;;;5.95;5.75;;;;;;;;;;6049178;29;20049;-90
2023/12/21 11:34:24;;;;;;;7.72;7.53;;;;;;;;;;6051638;29;20044;-90
2023/12/21 11:37:26;;;;;;;7.65;7.45;;;;;;;;;;6047140;29;20450;-92
2023/12/21 11:40:28;;;;;;;6.13;5.93;;;;;;;;;;6049468;29;20147;-91
2023/12/21 11:43:31;;;;;;;6.00;5.80;;;;;;;;;;6045817;29;20045;-92
2023/12/21 11:46:36;;;;;;;5.80;5.60;;;;;;;;;;6046339;29;20385;-91
2023/12/21 11:49:38;;;;;;;7.32;7.13;;;;;;;;;;6054445;29;20045;-89
2023/12/21 11:52:40;;;;;;;6.18;5.97;;;;;;;;;;6038288;29;20548;-91
2023/12/21 11:55:43;;;;;;;6.82;6.63;;;;;;;;;;6046000;29;20504;-92
2023/12/21 11:58:47;;;;;;;6.45;6.25;;;;;;;;;;6048162;29;20060;-89
2023/12/21 12:01:50;;;;;;;5.97;5.78;;;;;;;;;;6044835;29;20105;-91
2023/12/21 12:04:53;;;;;;;6.13;5.93;;;;;;;;;;6039578;29;20044;-94
2023/12/21 12:07:55;;;;;;;6.53;6.32;;;;;;;;;;6055387;29;20060;-91
2023/12/21 12:11:01;;;;;;;5.82;5.63;;;;;;;;;;6045588;29;20492;-93
2023/12/21 12:14:03;;;;;;;6.60;6.40;;;;;;;;;;6053014;29;20453;-91
2023/12/21 12:17:06;;;;;;;5.63;5.43;;;;;;;;;;6025561;29;20061;-91
2023/12/21 12:20:09;;;;;;;7.13;6.93;;;;;;;;;;6027541;29;20197;-90
2023/12/21 12:23:11;;;;;;;6.07;5.88;;;;;;;;;;6043255;29;20129;-90
2023/12/21 12:26:14;;;;;;;6.25;6.05;;;;;;;;;;6038681;29;20132;-90
2023/12/21 12:29:19;;;;;;;6.13;5.93;;;;;;;;;;6041287;29;20053;-93
2023/12/21 12:32:21;;;;;;;6.00;5.80;;;;;;;;;;6042721;29;20068;-90
2023/12/21 12:35:23;;;;;;;11.13;10.73;;;;;;;;;;6044750;29;20052;-92
2023/12/21 12:38:27;;;;;;;8.98;8.68;;;;;;;;;;6043267;29;20037;-91
2023/12/21 12:41:28;;;;;;;5.75;5.57;;;;;;;;;;6045501;29;20049;-90
2023/12/21 12:44:33;;;;;;;8.63;8.32;;;;;;;;;;6035393;29;20051;-93
2023/12/21 12:47:36;;;;;;;7.88;7.68;;;;;;;;;;6059899;29;20048;-92
2023/12/21 12:50:38;;;;;;;6.15;5.95;;;;;;;;;;6042473;29;20050;-92
2023/12/21 12:53:45;;;;;;;7.03;6.82;;;;;;;;;;6043697;29;20498;-92
2023/12/21 12:56:48;;;;;;;8.73;8.43;;;;;;;;;;6045334;29;20415;-93
2023/12/21 12:59:50;;;;;;;5.70;5.55;;;;;;;;;;6048420;29;20277;-91
2023/12/21 13:02:52;;;;;;;15.45;14.95;;;;;;;;;;6047683;29;20245;-91
2023/12/21 13:05:54;;;;;;;18.63;17.92;;;;;;;;;;6039603;29;20049;-91
2023/12/21 13:09:12;;;;;;;6.85;6.65;;;;;;;;;;6051976;29;20049;-94
2023/12/21 13:12:14;;;;;;;5.80;5.60;;;;;;;;;;6043365;29;20085;-92
2023/12/21 13:15:16;;;;;;;6.10;5.90;;;;;;;;;;6053268;29;20148;-90
2023/12/21 13:18:18;;;;;;;7.00;6.45;;;;;;;;;;6046683;29;20037;-90
2023/12/21 13:21:20;;;;;;;10.88;10.48;;;;;;;;;;6046143;29;20201;-89
2023/12/21 13:24:21;;;;;;;21.20;20.50;;;;;;;;;;6038770;29;20071;-87
2023/12/21 13:27:24;;;;;;;13.90;6.28;;;;;;;;;;6042830;29;20044;-89
2023/12/21 13:30:25;;;;;;;7.43;7.22;;;;;;;;;;6029991;29;20045;-87
2023/12/21 13:33:27;;;;;;;8.48;8.18;;;;;;;;;;6044018;29;20551;-89
2023/12/21 13:36:29;;;;;;;34.30;33.08;;;;;;;;;;6043241;29;20040;-89
2023/12/21 13:39:33;;;;;;;6.03;5.72;;;;;;;;;;6040272;29;20069;-89
2023/12/21 13:42:35;;;;;;;7.22;7.03;;;;;;;;;;6039564;29;20112;-90
2023/12/21 13:45:37;;;;;;;10.77;10.45;;;;;;;;;;6047345;29;20792;-88
2023/12/21 13:48:39;;;;;;;30.50;29.50;;;;;;;;;;6047684;29;20119;-88
2023/12/21 13:51:45;;;;;;;5.30;5.20;;;;;;;;;;6044380;29;20563;-91
2023/12/21 13:54:46;;;;;;;5.50;5.30;;;;;;;;;;6033065;29;20057;-90
2023/12/21 13:57:49;;;;;;;9.77;9.48;;;;;;;;;;6050945;29;20034;-88
2023/12/21 14:00:51;;;;;;;6.20;5.97;;;;;;;;;;6042941;29;20056;-89
2023/12/21 14:03:55;;;;;;;6.55;6.15;;;;;;;;;;6049217;29;20050;-89
2023/12/21 14:06:57;;;;;;;5.18;5.07;;;;;;;;;;6043147;29;20559;-92
2023/12/21 14:10:08;;;;;;;7.35;6.57;;;;;;;;;;6043579;29;20045;-93
2023/12/21 14:13:13;;;;;;;5.03;4.93;;;;;;;;;;6041258;29;20065;-91
2023/12/21 14:16:15;;;;;;;4.80;4.70;;;;;;;;;;6047012;29;20048;-89
2023/12/21 14:19:19;;;;;;;5.25;5.05;;;;;;;;;;6051056;29;20499;-93
2023/12/21 14:22:26;;;;;;;8.85;8.55;;;;;;;;;;6069319;29;20045;-93
2023/12/21 14:25:28;;;;;;;4.88;4.78;;;;;;;;;;6047752;29;20049;-90
2023/12/21 14:28:30;;;;;;;8.07;7.82;;;;;;;;;;6047257;29;20045;-88
2023/12/21 14:31:44;;;;;;;5.50;5.30;;;;;;;;;;6043161;29;20181;-89
2023/12/21 14:34:45;;;;;;;6.70;6.50;;;;;;;;;;6051424;29;20492;-88
2023/12/21 14:37:49;;;;;;;5.65;5.45;;;;;;;;;;6049662;29;20100;-90
2023/12/21 14:40:52;;;;;;;6.72;6.32;;;;;;;;;;6052759;29;20072;-92
2023/12/21 14:43:54;;;;;;;6.47;6.28;;;;;;;;;;6050930;29;20424;-94
2023/12/21 14:46:57;;;;;;;6.47;6.28;;;;;;;;;;6052233;29;20047;-93
2023/12/21 14:49:58;;;;;;;6.60;6.25;;;;;;;;;;6055248;29;20140;-89
2023/12/21 14:53:01;;;;;;;5.78;5.57;;;;;;;;;;6053037;29;20128;-92
2023/12/21 14:56:03;;;;;;;6.30;6.10;;;;;;;;;;6052389;29;21305;-89
2023/12/21 14:59:06;;;;;;;6.22;6.03;;;;;;;;;;6051119;29;20121;-92
2023/12/21 15:02:09;;;;;;;6.53;6.32;;;;;;;;;;6059697;29;20602;-91
2023/12/21 15:05:11;;;;;;;9.18;8.88;;;;;;;;;;6059900;29;20500;-89
2023/12/21 15:08:13;;;;;;;7.95;7.65;;;;;;;;;;6052235;29;20056;-88
2023/12/21 15:11:16;;;;;;;5.47;5.28;;;;;;;;;;6047711;29;20049;-89
2023/12/21 15:14:18;;;;;;;6.05;5.85;;;;;;;;;;6042805;29;20038;-91
2023/12/21 15:17:20;;;;;;;5.55;5.35;;;;;;;;;;6047238;29;20525;-89
2023/12/21 15:20:22;;;;;;;5.57;5.38;;;;;;;;;;6043542;29;20053;-89
2023/12/21 15:23:24;;;;;;;4.97;4.78;;;;;;;;;;6041312;29;20049;-90
2023/12/21 15:26:26;;;;;;;5.13;5.00;;;;;;;;;;6041343;29;20045;-92
2023/12/21 15:29:30;;;;;;;8.30;5.68;;;;;;;;;;6052374;29;20045;-92
2023/12/21 15:32:32;;;;;;;4.68;4.57;;;;;;;;;;6048442;29;20045;-91
2023/12/21 15:35:33;;;;;;;5.18;5.03;;;;;;;;;;6045866;29;20404;-90
2023/12/21 15:38:36;;;;;;;4.60;4.40;;;;;;;;;;6049982;29;20051;-90
2023/12/21 15:41:37;;;;;;;4.60;4.50;;;;;;;;;;6038540;29;20177;-88
2023/12/21 15:44:39;;;;;;;6.60;6.40;;;;;;;;;;6040553;29;20049;-88
2023/12/21 15:47:43;;;;;;;6.18;5.97;;;;;;;;;;6042850;29;20037;-91
2023/12/21 15:50:47;;;;;;;5.55;5.35;;;;;;;;;;6043851;29;20064;-90
2023/12/21 15:53:49;;;;;;;9.52;6.40;;;;;;;;;;6041206;29;20059;-89
2023/12/21 15:56:51;;;;;;;4.80;4.70;;;;;;;;;;6053064;29;20491;-92
2023/12/21 15:59:52;;;;;;;4.43;4.32;;;;;;;;;;6052592;29;20045;-90
2023/12/21 16:02:56;;;;;;;4.43;4.32;;;;;;;;;;6045685;29;20041;-90
2023/12/21 16:05:59;;;;;;;5.53;5.32;;;;;;;;;;6026541;29;20499;-91
2023/12/21 16:09:01;;;;;;;6.05;5.85;;;;;;;;;;6051223;29;20617;-91
2023/12/21 16:12:03;;;;;;;4.90;4.80;;;;;;;;;;6047447;29;20971;-90
2023/12/21 16:15:05;;;;;;;5.78;5.45;;;;;;;;;;6035836;29;20076;-88
2023/12/21 16:18:13;;;;;;;4.30;4.20;;;;;;;;;;6045507;29;20068;-88
2023/12/21 16:21:15;;;;;;;4.90;4.80;;;;;;;;;;6041274;29;20100;-89
2023/12/21 16:24:20;;;;;;;6.20;6.00;;;;;;;;;;6037744;29;20609;-90
2023/12/21 16:27:22;;;;;;;5.40;5.20;;;;;;;;;;6043734;29;20052;-93
2023/12/21 16:30:24;;;;;;;6.05;5.85;;;;;;;;;;6043049;29;20422;-91
2023/12/21 16:33:25;;;;;;;7.00;5.55;;;;;;;;;;6042810;29;20049;-90
2023/12/21 16:36:27;;;;;;;5.07;4.88;;;;;;;;;;6042424;29;20119;-88
2023/12/21 16:39:30;;;;;;;5.15;4.97;;;;;;;;;;6048003;29;20048;-87
2023/12/21 16:42:32;;;;;;;5.22;5.03;;;;;;;;;;6043246;29;20049;-87
2023/12/21 16:45:33;;;;;;;6.07;5.78;;;;;;;;;;6045558;29;20051;-86
2023/12/21 16:48:35;;;;;;;5.15;4.95;;;;;;;;;;6046627;29;20033;-86
2023/12/21 16:51:37;;;;;;;5.22;5.05;;;;;;;;;;6040873;29;20852;-85
2023/12/21 16:54:38;;;;;;;5.60;5.40;;;;;;;;;;6038900;29;20037;-85
2023/12/21 16:57:40;;;;;;;5.22;4.82;;;;;;;;;;6024793;29;20294;-86
2023/12/21 17:00:42;;;;;;;6.32;6.13;;;;;;;;;;6041932;29;20092;-86
2023/12/21 17:03:44;;;;;;;5.55;5.35;;;;;;;;;;6041788;29;20051;-85
2023/12/21 17:06:47;;;;;;;8.55;5.57;;;;;;;;;;6042997;29;20060;-85
2023/12/21 17:09:49;;;;;;;5.45;5.25;;;;;;;;;;6046282;29;20091;-86
2023/12/21 17:12:55;;;;;;;4.63;4.53;;;;;;;;;;6044377;29;20045;-85
2023/12/21 17:15:58;;;;;;;5.15;4.95;;;;;;;;;;6043217;29;20047;-86
2023/12/21 17:19:00;;;;;;;6.78;5.75;;;;;;;;;;6037218;29;20173;-86
2023/12/21 17:22:02;;;;;;;5.93;5.63;;;;;;;;;;6041280;29;20050;-87
2023/12/21 17:25:08;;;;;;;5.75;5.45;;;;;;;;;;6039564;29;20079;-86
2023/12/21 17:28:31;;;;;;;5.30;5.10;;;;;;;;;;6045758;29;20149;-87
2023/12/21 17:32:07;;;;;;;16.08;6.82;;;;;;;;;;6037840;29;20144;-87
2023/12/21 17:35:09;;;;;;;5.68;5.47;;;;;;;;;;6044002;29;20648;-87
2023/12/21 17:38:14;;;;;;;5.22;5.03;;;;;;;;;;6044057;29;20051;-86
2023/12/21 17:41:16;;;;;;;6.45;5.72;;;;;;;;;;6039619;29;20093;-86
2023/12/21 17:44:19;;;;;;;7.53;6.50;;;;;;;;;;6034209;29;20044;-87
2023/12/21 17:47:21;;;;;;;7.28;6.75;;;;;;;;;;6036994;29;20089;-87
2023/12/21 17:50:23;;;;;;;7.45;6.78;;;;;;;;;;6041846;29;20496;-87
2023/12/21 17:53:25;;;;;;;6.90;6.45;;;;;;;;;;6039728;29;20159;-88
2023/12/21 17:56:27;;;;;;;6.57;6.30;;;;;;;;;;6038029;29;20480;-88
2023/12/21 17:59:28;;;;;;;11.93;7.35;;;;;;;;;;6038067;29;20523;-89
2023/12/21 18:02:30;;;;;;;7.80;7.30;;;;;;;;;;6027019;29;20508;-96
2023/12/21 18:05:32;;;;;;;9.98;9.57;;;;;;;;;;6033577;29;20060;-93
2023/12/21 18:08:35;;;;;;;9.63;8.70;;;;;;;;;;6029910;29;20037;-91
2023/12/21 18:11:38;;;;;;;12.32;10.52;;;;;;;;;;6043190;29;20368;-89
2023/12/21 18:14:41;;;;;;;12.13;8.52;;;;;;;;;;6041606;29;20052;-88
2023/12/21 18:17:43;;;;;;;6.57;6.07;;;;;;;;;;6042402;29;20496;-88